Time;durP1;ratioP1;P1;durP2;ratioP2;P2;SDS_P1;SDS_P2;PMS_P1;PMS_P2;Temp;Humidity;BMP_temperature;BMP_pressure;BME280_temperature;BME280_humidity;BME280_pressure;Samples;Min_cycle;Max_cycle;Signal;HPM_P1;HPM_P2
2023/05/12 00:00:38;;;;;;;111.10;48.67;;;13.20;99.90;;;;;;5073307;28;20370;-68
2023/05/12 00:03:03;;;;;;;109.40;50.50;;;13.20;99.90;;;;;;5073279;28;20032;-67
2023/05/12 00:05:29;;;;;;;100.75;50.25;;;13.20;99.90;;;;;;5073269;28;20402;-67
2023/05/12 00:07:55;;;;;;;98.28;48.80;;;13.10;99.90;;;;;;5072976;28;20100;-67
2023/05/12 00:10:20;;;;;;;102.70;46.83;;;13.10;99.90;;;;;;5073517;28;20040;-67
2023/05/12 00:12:46;;;;;;;101.38;47.60;;;13.20;99.90;;;;;;5073375;28;20036;-68
2023/05/12 00:15:12;;;;;;;101.68;48.28;;;13.10;99.90;;;;;;5073419;28;20474;-67
2023/05/12 00:17:38;;;;;;;95.75;46.33;;;13.10;99.90;;;;;;5073355;28;20078;-67
2023/05/12 00:20:05;;;;;;;92.38;44.92;;;13.10;99.90;;;;;;5073216;28;20029;-67
2023/05/12 00:22:31;;;;;;;97.57;46.40;;;13.10;99.90;;;;;;5073498;28;20031;-67
2023/05/12 00:24:56;;;;;;;96.20;45.30;;;13.10;99.90;;;;;;5073157;28;20032;-67
2023/05/12 00:27:22;;;;;;;90.63;45.03;;;13.10;99.90;;;;;;5073241;28;20029;-68
2023/05/12 00:29:48;;;;;;;88.10;43.17;;;13.10;99.90;;;;;;5073386;28;20081;-68
2023/05/12 00:32:13;;;;;;;89.63;42.88;;;13.00;99.90;;;;;;5073048;28;20039;-67
2023/05/12 00:34:39;;;;;;;79.50;40.28;;;13.00;99.90;;;;;;5072591;28;20035;-67
2023/05/12 00:37:05;;;;;;;82.22;39.97;;;13.10;99.90;;;;;;5073348;28;20386;-67
2023/05/12 00:39:30;;;;;;;78.53;38.55;;;13.00;99.90;;;;;;5073588;28;20025;-67
2023/05/12 00:41:57;;;;;;;75.78;36.65;;;13.00;99.90;;;;;;5073585;28;20086;-67
2023/05/12 00:44:23;;;;;;;70.82;35.47;;;13.00;99.90;;;;;;5076001;28;20034;-67
2023/05/12 00:46:49;;;;;;;68.18;35.00;;;13.00;99.90;;;;;;5076821;28;20099;-67
2023/05/12 00:49:15;;;;;;;66.07;34.75;;;13.00;99.90;;;;;;5076894;28;20112;-67
2023/05/12 00:51:41;;;;;;;61.92;32.38;;;13.00;99.90;;;;;;5075809;28;20458;-67
2023/05/12 00:54:08;;;;;;;62.35;32.72;;;13.00;99.90;;;;;;5076814;28;20063;-67
2023/05/12 00:56:38;;;;;;;56.63;29.88;;;13.00;99.90;;;;;;5075094;28;20386;-67
2023/05/12 00:59:05;;;;;;;53.20;30.63;;;13.00;99.90;;;;;;5076464;28;20074;-67
2023/05/12 01:01:32;;;;;;;54.03;29.45;;;13.00;99.90;;;;;;5076393;28;20021;-67
2023/05/12 01:03:58;;;;;;;53.13;29.20;;;13.00;99.90;;;;;;5076636;28;20082;-67
2023/05/12 01:06:48;;;;;;;49.67;28.42;;;13.00;99.90;;;;;;5076790;28;20424;-67
2023/05/12 01:09:14;;;;;;;49.38;27.35;;;13.00;99.90;;;;;;5075696;28;20078;-67
2023/05/12 01:11:40;;;;;;;51.28;29.67;;;12.90;99.90;;;;;;5075929;28;20081;-67
2023/05/12 01:14:05;;;;;;;59.55;30.30;;;12.90;99.90;;;;;;5076457;28;20028;-67
2023/05/12 01:16:38;;;;;;;60.28;32.55;;;12.80;99.90;;;;;;5076350;28;20077;-67
2023/05/12 01:19:06;;;;;;;55.35;31.95;;;12.80;99.90;;;;;;5076162;28;20087;-67
2023/05/12 01:21:32;;;;;;;57.35;32.90;;;12.80;99.90;;;;;;5074597;28;20467;-67
2023/05/12 01:24:01;;;;;;;53.88;31.35;;;12.80;99.90;;;;;;5075718;28;20130;-67
2023/05/12 01:26:28;;;;;;;58.45;30.65;;;12.80;99.90;;;;;;5075869;28;20035;-67
2023/05/12 01:28:55;;;;;;;53.08;30.83;;;12.80;99.90;;;;;;5075508;28;20474;-67
2023/05/12 01:31:21;;;;;;;52.08;29.95;;;12.70;99.90;;;;;;5075758;28;20028;-67
2023/05/12 01:33:47;;;;;;;48.80;29.27;;;12.80;99.90;;;;;;5076336;28;20458;-67
2023/05/12 01:36:12;;;;;;;53.33;31.10;;;12.80;99.90;;;;;;5075235;28;20051;-67
2023/05/12 01:38:38;;;;;;;49.60;30.48;;;12.80;99.90;;;;;;5075995;28;20038;-67
2023/05/12 01:41:03;;;;;;;54.40;31.05;;;12.80;99.90;;;;;;5075736;28;20048;-67
2023/05/12 01:43:29;;;;;;;54.22;29.23;;;12.80;99.90;;;;;;5075320;28;20017;-67
2023/05/12 01:45:55;;;;;;;55.08;31.25;;;12.70;99.90;;;;;;5075289;28;20025;-67
2023/05/12 01:48:20;;;;;;;52.88;30.15;;;12.80;99.90;;;;;;5075701;28;20080;-67
2023/05/12 01:50:46;;;;;;;47.88;29.05;;;12.80;99.90;;;;;;5075239;28;20166;-67
2023/05/12 01:53:11;;;;;;;52.78;29.55;;;12.80;99.90;;;;;;5075385;28;20428;-67
2023/05/12 01:55:37;;;;;;;48.22;28.77;;;12.80;99.90;;;;;;5075584;28;20029;-67
2023/05/12 01:58:02;;;;;;;53.20;29.83;;;12.80;99.90;;;;;;5075587;28;20109;-67
2023/05/12 02:00:28;;;;;;;50.33;29.88;;;12.80;99.90;;;;;;5075457;28;20029;-67
2023/05/12 02:02:54;;;;;;;48.40;28.27;;;12.80;99.90;;;;;;5075498;28;20100;-67
2023/05/12 02:05:19;;;;;;;50.30;28.23;;;12.80;99.90;;;;;;5075149;28;20029;-67
2023/05/12 02:07:45;;;;;;;49.33;29.05;;;12.80;99.90;;;;;;5075501;28;20524;-67
2023/05/12 02:10:10;;;;;;;50.92;28.67;;;12.80;99.90;;;;;;5075328;28;20458;-67
2023/05/12 02:12:36;;;;;;;44.38;26.77;;;12.80;99.90;;;;;;5074987;28;20017;-67
2023/05/12 02:15:01;;;;;;;47.00;27.50;;;12.80;99.90;;;;;;5074941;28;20028;-67
2023/05/12 02:17:27;;;;;;;44.05;26.33;;;12.80;99.90;;;;;;5074686;28;20032;-67
2023/05/12 02:19:53;;;;;;;44.83;26.73;;;12.80;99.90;;;;;;5074961;28;20489;-67
2023/05/12 02:22:19;;;;;;;41.05;25.60;;;12.80;99.90;;;;;;5073609;28;20021;-67
2023/05/12 02:24:44;;;;;;;43.03;26.23;;;12.80;99.90;;;;;;5074432;28;20029;-67
2023/05/12 02:27:10;;;;;;;40.97;25.17;;;12.80;99.90;;;;;;5074371;28;20077;-67
2023/05/12 02:29:36;;;;;;;40.22;24.55;;;12.80;99.90;;;;;;5074614;28;20035;-67
2023/05/12 02:32:02;;;;;;;38.83;24.63;;;12.80;99.90;;;;;;5075252;28;20170;-67
2023/05/12 02:34:28;;;;;;;42.28;25.58;;;12.90;99.90;;;;;;5074921;28;20383;-67
2023/05/12 02:36:53;;;;;;;45.58;25.67;;;12.80;99.90;;;;;;5073830;28;20051;-67
2023/05/12 02:39:19;;;;;;;46.55;24.92;;;12.90;99.90;;;;;;5074213;28;20024;-67
2023/05/12 02:41:44;;;;;;;39.25;24.35;;;12.90;99.90;;;;;;5074749;28;20035;-67
2023/05/12 02:44:10;;;;;;;41.80;24.20;;;12.80;99.90;;;;;;5074428;28;20024;-67
2023/05/12 02:46:36;;;;;;;40.58;24.48;;;12.80;99.90;;;;;;5074407;28;20055;-67
2023/05/12 02:49:01;;;;;;;41.47;24.55;;;12.90;99.90;;;;;;5074069;28;20047;-67
2023/05/12 02:51:27;;;;;;;38.25;23.65;;;12.80;99.90;;;;;;5074537;28;20033;-67
2023/05/12 02:53:53;;;;;;;41.03;23.65;;;12.80;99.90;;;;;;5074104;28;20043;-67
2023/05/12 02:56:19;;;;;;;38.83;23.65;;;12.80;99.90;;;;;;5074128;28;20351;-67
2023/05/12 02:58:44;;;;;;;39.67;23.42;;;12.80;99.90;;;;;;5074462;28;20027;-67
2023/05/12 03:01:10;;;;;;;38.88;22.95;;;12.80;99.90;;;;;;5074484;28;20091;-67
2023/05/12 03:03:35;;;;;;;35.65;22.17;;;12.70;99.90;;;;;;5074581;28;20367;-67
2023/05/12 03:06:03;;;;;;;39.10;22.20;;;12.70;99.90;;;;;;5073347;28;20028;-67
2023/05/12 03:08:28;;;;;;;34.50;20.35;;;12.70;99.90;;;;;;5074230;28;20036;-67
2023/05/12 03:10:54;;;;;;;30.10;20.10;;;12.60;99.90;;;;;;5074306;28;20028;-67
2023/05/12 03:13:19;;;;;;;29.95;19.60;;;12.60;99.90;;;;;;5074231;28;20032;-67
2023/05/12 03:15:45;;;;;;;27.60;19.67;;;12.60;99.90;;;;;;5074166;28;20029;-67
2023/05/12 03:18:10;;;;;;;25.35;17.70;;;12.60;99.90;;;;;;5074201;28;20029;-67
2023/05/12 03:20:36;;;;;;;26.92;18.90;;;12.50;99.90;;;;;;5073899;28;20108;-67
2023/05/12 03:23:02;;;;;;;24.42;17.77;;;12.50;99.90;;;;;;5074188;28;20070;-67
2023/05/12 03:25:28;;;;;;;27.83;16.77;;;12.50;99.90;;;;;;5073629;28;20066;-67
2023/05/12 03:27:53;;;;;;;25.80;17.65;;;12.50;99.90;;;;;;5073822;28;20029;-69
2023/05/12 03:30:19;;;;;;;23.70;16.45;;;12.50;99.90;;;;;;5074077;28;20028;-67
2023/05/12 03:32:45;;;;;;;26.60;15.68;;;12.40;99.90;;;;;;5073798;28;20028;-67
2023/05/12 03:35:10;;;;;;;23.15;15.95;;;12.40;99.90;;;;;;5073715;28;20044;-67
2023/05/12 03:37:36;;;;;;;23.33;16.15;;;12.40;99.90;;;;;;5073663;28;20064;-67
2023/05/12 03:40:02;;;;;;;28.50;16.25;;;12.40;99.90;;;;;;5073702;28;20052;-67
2023/05/12 03:42:28;;;;;;;24.50;17.10;;;12.40;99.90;;;;;;5073460;28;20029;-67
2023/05/12 03:44:53;;;;;;;21.27;14.50;;;12.40;99.90;;;;;;5073918;28;20044;-67
2023/05/12 03:47:19;;;;;;;21.00;16.13;;;12.40;99.90;;;;;;5073853;28;20028;-67
2023/05/12 03:49:44;;;;;;;18.77;15.13;;;12.40;99.90;;;;;;5073322;28;20109;-67
2023/05/12 03:52:11;;;;;;;22.35;15.02;;;12.40;99.90;;;;;;5073530;28;20028;-67
2023/05/12 03:54:36;;;;;;;25.80;15.98;;;12.50;99.90;;;;;;5073626;28;20025;-67
2023/05/12 03:57:02;;;;;;;20.83;13.85;;;12.40;99.90;;;;;;5073543;28;20463;-67
2023/05/12 03:59:31;;;;;;;20.73;14.98;;;12.40;99.90;;;;;;5073260;28;20017;-67
2023/05/12 04:01:57;;;;;;;23.50;13.88;;;12.40;99.90;;;;;;5073992;28;20124;-67
2023/05/12 04:04:22;;;;;;;21.13;14.68;;;12.40;99.90;;;;;;5073547;28;20478;-67
2023/05/12 04:06:48;;;;;;;22.27;14.65;;;12.40;99.90;;;;;;5073463;28;20025;-67
2023/05/12 04:09:15;;;;;;;20.10;14.25;;;12.40;99.90;;;;;;5073456;28;20035;-67
2023/05/12 04:11:41;;;;;;;19.42;14.32;;;12.50;99.90;;;;;;5073408;28;20052;-67
2023/05/12 04:14:07;;;;;;;20.35;14.35;;;12.40;99.90;;;;;;5072872;28;20044;-67
2023/05/12 04:16:34;;;;;;;18.75;14.23;;;12.50;99.90;;;;;;5073599;28;20029;-67
2023/05/12 04:19:02;;;;;;;16.52;13.85;;;12.50;99.90;;;;;;5075929;28;20359;-67
2023/05/12 04:21:27;;;;;;;17.08;13.35;;;12.60;99.90;;;;;;5075641;28;20025;-67
2023/05/12 04:23:53;;;;;;;17.33;13.15;;;12.50;99.90;;;;;;5077331;28;20074;-67
2023/05/12 04:26:18;;;;;;;17.65;12.43;;;12.60;99.90;;;;;;5076775;28;20048;-67
2023/05/12 04:28:44;;;;;;;16.63;13.18;;;12.60;99.90;;;;;;5076774;28;20028;-67
2023/05/12 04:31:09;;;;;;;19.00;11.63;;;12.60;99.90;;;;;;5076969;28;20024;-67
2023/05/12 04:33:35;;;;;;;15.10;12.05;;;12.70;99.90;;;;;;5076644;28;20031;-67
2023/05/12 04:36:01;;;;;;;13.73;11.35;;;12.70;99.90;;;;;;5076282;28;20071;-67
2023/05/12 04:38:27;;;;;;;16.77;11.25;;;12.80;99.90;;;;;;5076734;28;20021;-67
2023/05/12 04:40:58;;;;;;;15.57;10.32;;;12.90;99.90;;;;;;5076721;28;20478;-67
2023/05/12 04:43:24;;;;;;;15.30;10.10;;;13.00;99.90;;;;;;5076488;28;20502;-67
2023/05/12 04:45:50;;;;;;;12.30;9.85;;;13.00;99.90;;;;;;5077001;28;20024;-67
2023/05/12 04:48:15;;;;;;;10.30;9.15;;;13.00;99.90;;;;;;5076963;28;20028;-67
2023/05/12 04:50:41;;;;;;;10.65;8.73;;;13.00;99.90;;;;;;5076619;28;20032;-67
2023/05/12 04:53:07;;;;;;;10.07;8.68;;;13.00;99.90;;;;;;5077027;28;20043;-67
2023/05/12 04:55:32;;;;;;;12.88;8.43;;;13.10;99.90;;;;;;5075854;28;20123;-67
2023/05/12 04:57:58;;;;;;;10.23;8.35;;;13.10;99.90;;;;;;5076787;28;20020;-67
2023/05/12 05:00:23;;;;;;;10.30;8.13;;;13.10;99.90;;;;;;5076730;28;20028;-67
2023/05/12 05:02:49;;;;;;;11.80;8.15;;;13.20;99.90;;;;;;5075787;28;20020;-67
2023/05/12 05:05:15;;;;;;;10.10;7.05;;;13.20;99.90;;;;;;5076664;28;20044;-67
2023/05/12 05:07:40;;;;;;;10.95;6.78;;;13.30;99.90;;;;;;5076034;28;20025;-67
2023/05/12 05:10:06;;;;;;;8.13;6.85;;;13.30;99.90;;;;;;5076115;28;20029;-67
2023/05/12 05:12:32;;;;;;;9.10;6.63;;;13.30;99.90;;;;;;5076428;28;20378;-67
2023/05/12 05:14:57;;;;;;;13.02;6.85;;;13.30;99.90;;;;;;5076480;28;20029;-67
2023/05/12 05:17:23;;;;;;;10.52;6.57;;;13.30;99.90;;;;;;5075989;28;20123;-67
2023/05/12 05:19:48;;;;;;;7.78;6.35;;;13.40;99.90;;;;;;5076382;28;20021;-67
2023/05/12 05:22:14;;;;;;;6.97;6.03;;;13.40;99.90;;;;;;5075750;28;20017;-67
2023/05/12 05:24:40;;;;;;;7.18;6.47;;;13.40;99.90;;;;;;5075778;28;20069;-67
2023/05/12 05:27:06;;;;;;;7.03;6.32;;;13.40;99.90;;;;;;5075731;28;20033;-67
2023/05/12 05:29:31;;;;;;;7.50;6.30;;;13.50;99.90;;;;;;5074406;28;20032;-67
2023/05/12 05:31:57;;;;;;;6.20;5.60;;;13.50;99.90;;;;;;5075884;28;20040;-67
2023/05/12 05:34:22;;;;;;;8.13;6.03;;;13.50;99.90;;;;;;5075865;28;20024;-67
2023/05/12 05:36:48;;;;;;;7.63;5.50;;;13.50;99.90;;;;;;5075029;28;20040;-67
2023/05/12 05:39:13;;;;;;;7.28;5.75;;;13.50;99.90;;;;;;5076016;28;20071;-67
2023/05/12 05:41:39;;;;;;;9.77;5.88;;;13.50;99.90;;;;;;5075928;28;20069;-67
2023/05/12 05:44:04;;;;;;;8.80;5.82;;;13.40;99.90;;;;;;5075700;28;20021;-67
2023/05/12 05:46:30;;;;;;;8.27;5.93;;;13.40;99.90;;;;;;5075661;28;20070;-67
2023/05/12 05:48:55;;;;;;;6.43;5.55;;;13.40;99.90;;;;;;5075319;28;20478;-67
2023/05/12 05:51:21;;;;;;;10.98;5.40;;;13.40;99.90;;;;;;5075846;28;20032;-67
2023/05/12 05:53:46;;;;;;;7.07;5.70;;;13.40;99.90;;;;;;5075793;28;20070;-67
2023/05/12 05:56:12;;;;;;;8.25;5.32;;;13.40;99.90;;;;;;5075064;28;20028;-67
2023/05/12 05:58:38;;;;;;;6.80;5.20;;;13.50;99.90;;;;;;5075352;28;20466;-67
2023/05/12 06:01:03;;;;;;;6.57;5.53;;;13.50;99.90;;;;;;5075660;28;20071;-67
2023/05/12 06:03:29;;;;;;;11.52;5.45;;;13.50;99.90;;;;;;5074962;28;20382;-67
2023/05/12 06:05:55;;;;;;;8.63;5.30;;;13.50;99.90;;;;;;5075448;28;20039;-67
2023/05/12 06:08:20;;;;;;;7.13;5.15;;;13.60;99.90;;;;;;5074955;28;20029;-67
2023/05/12 06:10:46;;;;;;;7.45;5.20;;;13.80;99.90;;;;;;5075217;28;20028;-67
2023/05/12 06:13:11;;;;;;;5.20;4.70;;;13.80;99.90;;;;;;5074354;28;20029;-67
2023/05/12 06:15:37;;;;;;;8.40;4.85;;;13.90;99.90;;;;;;5074313;28;20040;-67
2023/05/12 06:18:03;;;;;;;5.97;4.82;;;14.10;99.90;;;;;;5074626;28;20466;-67
2023/05/12 06:20:28;;;;;;;9.43;4.90;;;14.10;99.90;;;;;;5071137;28;20020;-67
2023/05/12 06:22:54;;;;;;;6.72;5.05;;;14.20;99.90;;;;;;5066065;28;20032;-67
2023/05/12 06:25:19;;;;;;;7.40;5.00;;;14.30;99.90;;;;;;5063788;28;20039;-67
2023/05/12 06:27:45;;;;;;;10.45;4.78;;;14.40;99.90;;;;;;5071974;28;20032;-67
2023/05/12 06:30:11;;;;;;;6.22;4.60;;;14.30;99.90;;;;;;5071209;28;20025;-67
2023/05/12 06:32:36;;;;;;;6.57;4.53;;;14.50;99.90;;;;;;5060444;28;20029;-67
2023/05/12 06:35:02;;;;;;;6.28;4.53;;;14.50;99.90;;;;;;5071570;28;20040;-67
2023/05/12 06:37:28;;;;;;;5.15;4.20;;;14.50;99.90;;;;;;5062167;28;20437;-67
2023/05/12 06:39:53;;;;;;;8.05;4.70;;;14.60;92.90;;;;;;5072714;28;20020;-67
2023/05/12 06:42:19;;;;;;;5.07;4.13;;;14.50;92.70;;;;;;5082204;28;20052;-67
2023/05/12 06:44:45;;;;;;;5.13;4.63;;;14.60;99.90;;;;;;5063032;28;20096;-67
2023/05/12 06:47:10;;;;;;;6.25;4.15;;;14.60;94.50;;;;;;5064050;28;20025;-67
2023/05/12 06:49:37;;;;;;;5.28;4.35;;;14.70;99.90;;;;;;5069896;28;20043;-66
2023/05/12 06:52:03;;;;;;;5.88;4.28;;;14.60;72.50;;;;;;5073632;28;20032;-66
2023/05/12 06:54:29;;;;;;;4.15;3.80;;;14.70;93.40;;;;;;5073850;28;20077;-67
2023/05/12 06:56:54;;;;;;;6.03;4.18;;;14.70;82.00;;;;;;5073757;28;20424;-66
2023/05/12 06:59:20;;;;;;;7.00;4.55;;;14.80;89.30;;;;;;5073968;28;20077;-66
2023/05/12 07:01:45;;;;;;;6.45;4.20;;;15.00;91.40;;;;;;5074423;28;20028;-66
2023/05/12 07:04:11;;;;;;;6.97;4.57;;;15.00;75.90;;;;;;5073755;28;20024;-66
2023/05/12 07:06:37;;;;;;;8.55;4.85;;;15.00;58.50;;;;;;5071469;28;20044;-66
2023/05/12 07:09:03;;;;;;;5.40;4.38;;;15.30;78.90;;;;;;5068767;28;20111;-66
2023/05/12 07:11:28;;;;;;;5.28;4.28;;;15.40;25.10;;;;;;5063031;28;20053;-67
2023/05/12 07:13:54;;;;;;;6.05;4.03;;;15.50;28.50;;;;;;5056418;28;20039;-66
2023/05/12 07:16:19;;;;;;;5.95;4.10;;;15.60;41.40;;;;;;5073165;28;20032;-66
2023/05/12 07:18:45;;;;;;;9.10;4.43;;;15.80;29.20;;;;;;5073651;28;20029;-66
2023/05/12 07:21:11;;;;;;;5.22;3.58;;;16.00;33.50;;;;;;5074125;28;20344;-66
2023/05/12 07:23:38;;;;;;;8.30;4.25;;;16.30;16.50;;;;;;5072432;28;20480;-66
2023/05/12 07:26:05;;;;;;;5.95;3.90;;;16.40;1.00;;;;;;5073513;28;20024;-66
2023/05/12 07:28:36;;;;;;;5.13;3.95;;;16.40;8.20;;;;;;5073455;28;20534;-66
2023/05/12 07:31:02;;;;;;;4.85;3.78;;;16.70;12.60;;;;;;5080829;28;20056;-66
2023/05/12 07:33:28;;;;;;;4.70;3.70;;;16.50;1.00;;;;;;5066791;28;20028;-66
2023/05/12 07:35:54;;;;;;;6.40;4.28;;;16.80;1.00;;;;;;5068445;28;20049;-66
2023/05/12 07:38:20;;;;;;;4.85;3.55;;;17.00;1.00;;;;;;5056000;28;20371;-66
2023/05/12 07:40:45;;;;;;;11.05;4.72;;;17.20;1.00;;;;;;5072928;28;20025;-67
2023/05/12 07:43:11;;;;;;;8.13;3.50;;;17.20;1.00;;;;;;5083083;28;20032;-67
2023/05/12 07:45:37;;;;;;;5.25;3.60;;;17.30;1.00;;;;;;5086325;28;20066;-67
2023/05/12 07:48:02;;;;;;;5.30;3.63;;;17.20;1.00;;;;;;5071672;28;20100;-66
2023/05/12 07:50:28;;;;;;;3.95;3.53;;;17.10;1.00;;;;;;5070864;28;20029;-67
2023/05/12 07:52:54;;;;;;;6.68;3.28;;;16.70;1.00;;;;;;5076960;28;20041;-67
2023/05/12 07:55:20;;;;;;;6.25;3.72;;;16.50;1.00;;;;;;5079320;28;20058;-66
2023/05/12 07:57:46;;;;;;;7.88;4.03;;;16.50;1.00;;;;;;5075724;28;20474;-66
2023/05/12 08:00:13;;;;;;;4.57;4.00;;;16.50;1.00;;;;;;5076895;28;20024;-66
2023/05/12 08:02:39;;;;;;;3.67;3.30;;;16.50;1.00;;;;;;5077396;28;20366;-66
2023/05/12 08:05:06;;;;;;;4.78;3.83;;;16.40;1.00;;;;;;5076534;28;20498;-66
2023/05/12 08:07:32;;;;;;;5.90;3.80;;;16.40;1.00;;;;;;5077659;28;20393;-66
2023/05/12 08:09:57;;;;;;;5.57;3.90;;;16.30;1.00;;;;;;5077641;28;20024;-68
2023/05/12 08:12:23;;;;;;;6.32;3.88;;;16.50;1.00;;;;;;5077874;28;20056;-68
2023/05/12 08:14:48;;;;;;;6.05;3.97;;;16.50;1.00;;;;;;5077075;28;20030;-69
2023/05/12 08:17:14;;;;;;;4.22;3.58;;;16.60;1.00;;;;;;5076049;28;20082;-68
2023/05/12 08:19:40;;;;;;;6.35;3.58;;;16.80;1.00;;;;;;5077671;28;20107;-69
2023/05/12 08:22:05;;;;;;;7.38;3.90;;;17.10;1.00;;;;;;5076370;28;20082;-68
2023/05/12 08:24:31;;;;;;;8.88;3.95;;;17.40;1.00;;;;;;5069847;28;20029;-68
2023/05/12 08:26:56;;;;;;;5.15;3.60;;;17.50;1.00;;;;;;5063742;28;20064;-69
2023/05/12 08:29:22;;;;;;;4.60;3.47;;;17.70;1.00;;;;;;5070100;28;20036;-68
2023/05/12 08:31:48;;;;;;;5.18;3.58;;;17.60;1.00;;;;;;5064140;28;20037;-68
2023/05/12 08:34:13;;;;;;;7.60;4.00;;;17.70;1.00;;;;;;5060567;28;20127;-68
2023/05/12 08:36:39;;;;;;;5.55;3.67;;;18.00;1.00;;;;;;5076224;28;20087;-68
2023/05/12 08:39:05;;;;;;;4.32;3.05;;;18.00;1.00;;;;;;5076770;28;20033;-68
2023/05/12 08:44:18;;;;;;;4.47;3.28;;;18.40;1.00;;;;;;5070623;28;20391;-69
2023/05/12 08:46:43;;;;;;;5.45;3.30;;;19.20;99.90;;;;;;5069579;28;20024;-69
2023/05/12 08:49:11;;;;;;;6.60;3.67;;;19.80;99.90;;;;;;5068928;28;20123;-69
2023/05/12 08:51:39;;;;;;;4.75;3.00;;;20.50;1.00;;;;;;5070427;28;20060;-69
2023/05/12 08:54:07;;;;;;;3.50;3.20;;;20.90;99.90;;;;;;5071292;28;20524;-69
2023/05/12 08:56:34;;;;;;;3.78;3.08;;;21.10;1.00;;;;;;5068825;28;20694;-70
2023/05/12 08:59:01;;;;;;;5.78;2.90;;;20.90;1.00;;;;;;5065785;28;20020;-69
2023/05/12 09:01:28;;;;;;;3.95;3.20;;;20.90;99.90;;;;;;5078939;28;20474;-70
2023/05/12 09:03:53;;;;;;;3.95;3.55;;;20.60;9.00;;;;;;5069238;28;20029;-69
2023/05/12 09:06:19;;;;;;;3.00;2.70;;;20.10;48.80;;;;;;5076865;28;20083;-70
2023/05/12 09:08:44;;;;;;;6.22;3.40;;;20.50;1.00;;;;;;5069135;28;20086;-70
2023/05/12 09:11:11;;;;;;;6.43;3.03;;;20.90;1.00;;;;;;5068560;28;20029;-70
2023/05/12 09:13:49;;;;;;;4.03;3.50;;;20.90;99.90;;;;;;5070198;28;20028;-70
2023/05/12 09:16:22;;;;;;;3.72;3.10;;;20.80;1.00;;;;;;5069651;28;20033;-70
2023/05/12 09:18:58;;;;;;;3.53;3.22;;;20.60;99.90;;;;;;5068624;28;20028;-70
2023/05/12 09:21:24;;;;;;;4.70;2.90;;;21.10;1.00;;;;;;5069753;28;20035;-69
2023/05/12 09:23:59;;;;;;;4.70;2.90;;;21.60;1.00;;;;;;5068557;28;20436;-69
2023/05/12 09:26:26;;;;;;;3.10;2.72;;;21.70;32.20;;;;;;5068880;28;20044;-69
2023/05/12 09:28:53;;;;;;;3.20;2.90;;;22.30;1.00;;;;;;5072429;28;20044;-70
2023/05/12 09:31:21;;;;;;;3.92;2.97;;;22.10;99.90;;;;;;5069693;28;20021;-69
2023/05/12 09:33:49;;;;;;;4.15;2.80;;;21.80;99.90;;;;;;5069357;28;20043;-69
2023/05/12 09:36:20;;;;;;;4.30;3.17;;;22.40;99.90;;;;;;5069415;28;20033;-69
2023/05/12 09:38:46;;;;;;;3.38;2.95;;;22.20;1.00;;;;;;5068864;28;20130;-69
2023/05/12 09:41:11;;;;;;;4.03;3.50;;;22.30;1.00;;;;;;5068504;28;20032;-69
2023/05/12 09:43:45;;;;;;;5.70;3.00;;;22.90;99.90;;;;;;5067992;28;20418;-69
2023/05/12 09:46:10;;;;;;;;;;;22.90;99.90;;;;;;5072738;28;20478;-69
2023/05/12 09:48:37;;;;;;;4.25;3.03;;;23.20;99.90;;;;;;5072983;28;19908;-68
2023/05/12 09:51:04;;;;;;;6.75;3.47;;;23.80;99.90;;;;;;5068905;28;20027;-70
2023/05/12 09:53:30;;;;;;;7.70;3.13;;;24.70;1.00;;;;;;5066333;28;20025;-70
2023/05/12 09:55:56;;;;;;;4.38;2.55;;;24.60;99.90;;;;;;5054839;28;20020;-69
2023/05/12 09:58:25;;;;;;;5.05;3.25;;;23.70;99.90;;;;;;5068360;28;20107;-69
2023/05/12 10:00:52;;;;;;;5.40;3.25;;;23.60;99.90;;;;;;5076425;28;20033;-69
2023/05/12 10:03:23;;;;;;;5.55;3.22;;;23.60;99.90;;;;;;5056113;28;20083;-69
2023/05/12 10:05:52;;;;;;;6.18;3.22;;;23.50;63.40;;;;;;5058591;28;20032;-70
2023/05/12 10:08:36;;;;;;;6.45;3.25;;;23.20;99.90;;;;;;5046206;28;20465;-69
2023/05/12 10:11:04;;;;;;;4.72;3.53;;;23.70;99.90;;;;;;5051387;28;20031;-70
2023/05/12 10:13:32;;;;;;;5.78;3.85;;;24.10;29.70;;;;;;5056211;28;20070;-71
2023/05/12 10:15:58;;;;;;;4.00;3.60;;;24.60;1.00;;;;;;5056126;28;20398;-69
2023/05/12 10:18:24;;;;;;;3.90;3.00;;;25.10;1.00;;;;;;5055477;28;20032;-69
2023/05/12 10:20:52;;;;;;;3.40;3.10;;;25.50;1.00;;;;;;5055964;28;20510;-70
2023/05/12 10:23:18;;;;;;;4.43;3.60;;;25.00;1.00;;;;;;5055076;28;20070;-70
2023/05/12 10:25:44;;;;;;;3.97;3.60;;;24.40;1.00;;;;;;5053162;28;20555;-70
2023/05/12 10:28:10;;;;;;;3.97;3.58;;;24.30;1.00;;;;;;5055253;28;20108;-69
2023/05/12 10:30:40;;;;;;;3.75;2.80;;;24.20;99.90;;;;;;5056284;28;20029;-70
2023/05/12 10:33:10;;;;;;;6.30;3.38;;;24.40;1.00;;;;;;5055486;28;20032;-69
2023/05/12 10:35:36;;;;;;;3.67;3.22;;;23.90;1.00;;;;;;5056171;28;20095;-69
2023/05/12 10:38:11;;;;;;;4.18;3.78;;;24.00;1.30;;;;;;5053575;28;20081;-70
2023/05/12 10:40:51;;;;;;;3.78;3.45;;;23.60;1.00;;;;;;5046715;28;20111;-69
2023/05/12 10:43:21;;;;;;;4.50;3.88;;;23.20;1.00;;;;;;5052653;28;20052;-69
2023/05/12 10:51:32;;;;;;;5.35;3.28;;;23.50;1.00;;;;;;5088315;28;20450;-69
2023/05/12 10:54:01;;;;;;;5.18;4.38;;;24.00;1.00;;;;;;5106167;28;20492;-69
2023/05/12 10:56:29;;;;;;;5.60;4.68;;;23.90;1.00;;;;;;5108607;28;20035;-69
2023/05/12 11:01:57;;;;;;;4.82;4.20;;;23.80;1.00;;;;;;5111743;27;20486;-70
2023/05/12 11:04:34;;;;;;;4.82;4.32;;;24.00;1.00;;;;;;5110797;28;20054;-70
2023/05/12 11:06:59;;;;;;;6.40;4.55;;;23.80;99.90;;;;;;5113655;28;20096;-70
2023/05/12 11:09:25;;;;;;;5.25;4.20;;;23.60;99.90;;;;;;5111107;28;20473;-69
2023/05/12 11:11:51;;;;;;;4.60;3.92;;;23.10;1.00;;;;;;5119041;28;20466;-70
2023/05/12 11:14:16;;;;;;;5.80;4.13;;;23.10;1.00;;;;;;5127775;28;20070;-69
2023/05/12 11:16:43;;;;;;;6.22;4.57;;;22.90;1.00;;;;;;5111773;28;20062;-70
2023/05/12 11:19:09;;;;;;;5.07;4.47;;;23.50;1.00;;;;;;5098770;28;20029;-68
2023/05/12 11:21:35;;;;;;;5.65;4.65;;;23.50;99.90;;;;;;5105738;28;20034;-69
2023/05/12 11:24:01;;;;;;;5.57;4.55;;;23.60;1.00;;;;;;5111067;28;20469;-70
2023/05/12 11:26:28;;;;;;;6.22;5.47;;;23.50;1.00;;;;;;5110447;28;20024;-70
2023/05/12 11:28:56;;;;;;;5.47;4.93;;;23.20;1.00;;;;;;5109500;28;20110;-69
2023/05/12 11:31:23;;;;;;;6.30;5.18;;;23.30;1.00;;;;;;5089158;28;20035;-69
2023/05/12 11:33:49;;;;;;;5.22;4.72;;;23.70;1.00;;;;;;5089378;28;20383;-69
2023/05/12 11:36:20;;;;;;;9.50;5.38;;;23.90;1.00;;;;;;5090345;28;20035;-69
2023/05/12 11:38:50;;;;;;;6.30;4.63;;;24.30;1.00;;;;;;5090597;28;20021;-69
2023/05/12 11:41:22;;;;;;;7.88;5.10;;;24.30;99.90;;;;;;5087811;28;20114;-69
2023/05/12 11:43:47;;;;;;;7.35;4.55;;;23.90;1.00;;;;;;5089945;28;20028;-69
2023/05/12 11:46:26;;;;;;;6.68;5.40;;;24.30;1.00;;;;;;5090297;28;20466;-70
2023/05/12 11:48:56;;;;;;;5.70;5.18;;;24.00;1.00;;;;;;5089676;28;20085;-69
2023/05/12 11:51:22;;;;;;;6.88;5.45;;;23.60;1.00;;;;;;5090529;28;20483;-69
2023/05/12 11:53:49;;;;;;;6.72;5.28;;;23.30;1.00;;;;;;5102440;28;20502;-70
2023/05/12 11:56:19;;;;;;;9.27;5.10;;;23.60;1.00;;;;;;5106176;28;20118;-70
2023/05/12 11:58:54;;;;;;;7.70;4.97;;;23.60;1.00;;;;;;5094745;28;20115;-70
2023/05/12 12:01:21;;;;;;;6.25;5.00;;;24.10;1.00;;;;;;5088998;28;20106;-68
2023/05/12 12:03:48;;;;;;;6.72;5.70;;;24.00;1.00;;;;;;5087996;28;20394;-68
2023/05/12 12:06:14;;;;;;;6.13;5.10;;;24.50;1.00;;;;;;5093713;28;20028;-69
2023/05/12 12:08:58;;;;;;;6.05;4.80;;;24.60;99.90;;;;;;5091593;28;20024;-69
2023/05/12 12:11:27;;;;;;;9.45;5.25;;;24.60;1.00;;;;;;5098385;28;20376;-69
2023/05/12 12:13:55;;;;;;;5.80;4.57;;;24.40;99.90;;;;;;5076449;28;20036;-69
2023/05/12 12:16:28;;;;;;;9.23;5.85;;;24.70;1.00;;;;;;5085471;28;20043;-69
2023/05/12 12:18:54;;;;;;;7.43;5.38;;;24.60;99.90;;;;;;5074314;28;20440;-69
2023/05/12 12:21:21;;;;;;;9.05;5.20;;;24.10;99.90;;;;;;5078809;28;20503;-70
2023/05/12 12:23:47;;;;;;;8.88;4.90;;;24.00;1.00;;;;;;5090118;28;20025;-70
2023/05/12 12:26:15;;;;;;;7.47;4.53;;;23.90;99.90;;;;;;5073205;28;20089;-69
2023/05/12 12:28:44;;;;;;;7.68;4.38;;;24.40;1.00;;;;;;5071205;28;20115;-68
2023/05/12 12:31:09;;;;;;;7.45;4.32;;;24.70;99.90;;;;;;5068561;28;20029;-68
2023/05/12 12:33:35;;;;;;;6.70;3.70;;;24.40;99.90;;;;;;5068912;28;20029;-68
2023/05/12 12:36:01;;;;;;;6.18;4.60;;;24.00;99.90;;;;;;5075257;28;20036;-69
2023/05/12 12:38:26;;;;;;;5.20;4.43;;;23.40;99.90;;;;;;5076110;28;20509;-68
2023/05/12 12:40:52;;;;;;;7.15;4.15;;;23.40;99.90;;;;;;5074858;28;20394;-68
2023/05/12 12:43:17;;;;;;;6.72;4.18;;;23.30;99.90;;;;;;5076156;28;20430;-68
2023/05/12 12:45:43;;;;;;;7.65;4.15;;;22.80;99.90;;;;;;5075914;28;20120;-68
2023/05/12 12:48:08;;;;;;;7.07;4.35;;;22.30;99.90;;;;;;5076046;28;20028;-68